createdAt,value
2018-05-12T00:01:21.819Z,15.30
2018-05-12T00:03:50.185Z,15.30
2018-05-12T00:06:18.538Z,15.30
2018-05-12T00:08:47.114Z,15.30
2018-05-12T00:11:15.466Z,15.30
2018-05-12T00:13:44.612Z,15.30
2018-05-12T00:16:13.097Z,15.30
2018-05-12T00:18:41.481Z,15.30
2018-05-12T00:21:10.035Z,15.30
2018-05-12T00:23:39.403Z,15.30
2018-05-12T00:26:07.927Z,15.30
2018-05-12T00:28:36.322Z,15.30
2018-05-12T00:31:04.688Z,15.30
2018-05-12T00:33:33.058Z,15.30
2018-05-12T00:36:01.419Z,15.30
2018-05-12T00:38:30.040Z,15.30
2018-05-12T00:40:58.395Z,15.30
2018-05-12T00:43:26.834Z,15.30
2018-05-12T00:45:55.197Z,15.30
2018-05-12T00:48:23.629Z,15.30
2018-05-12T00:50:52.143Z,15.30
2018-05-12T00:53:20.490Z,15.30
2018-05-12T00:55:48.905Z,15.30
2018-05-12T00:58:17.982Z,15.20
2018-05-12T01:00:46.502Z,15.20
2018-05-12T01:03:14.878Z,15.20
2018-05-12T01:05:43.229Z,15.20
2018-05-12T01:08:11.608Z,15.20
2018-05-12T01:10:39.947Z,15.20
2018-05-12T01:13:09.146Z,15.20
2018-05-12T01:15:37.473Z,15.20
2018-05-12T01:18:07.051Z,15.10
2018-05-12T01:20:35.451Z,15.10
2018-05-12T01:23:03.793Z,15.10
2018-05-12T01:25:32.927Z,15.10
2018-05-12T01:28:01.275Z,15.10
2018-05-12T01:30:29.638Z,15.10
2018-05-12T01:32:58.770Z,15.10
2018-05-12T01:35:27.115Z,15.10
2018-05-12T01:37:55.752Z,15.10
2018-05-12T01:40:24.132Z,15.10
2018-05-12T01:42:52.870Z,15.10
2018-05-12T01:45:22.422Z,15.10
2018-05-12T01:47:50.886Z,15.10
2018-05-12T01:50:19.264Z,15.00
2018-05-12T01:52:47.631Z,15.00
2018-05-12T01:55:15.973Z,15.00
2018-05-12T01:57:44.510Z,15.00
2018-05-12T02:00:12.871Z,15.00
2018-05-12T02:02:41.230Z,15.00
2018-05-12T02:05:09.641Z,14.90
2018-05-12T02:07:38.027Z,14.90
2018-05-12T02:10:06.367Z,14.90
2018-05-12T02:12:34.722Z,14.90
2018-05-12T02:15:03.150Z,14.90
2018-05-12T02:17:31.518Z,14.80
2018-05-12T02:20:00.678Z,14.80
2018-05-12T02:22:29.347Z,14.80
2018-05-12T02:24:57.752Z,14.80
2018-05-12T02:27:26.356Z,14.70
2018-05-12T02:29:55.485Z,14.70
2018-05-12T02:32:23.837Z,14.60
2018-05-12T02:34:52.994Z,14.70
2018-05-12T02:37:21.354Z,14.70
2018-05-12T02:39:51.258Z,14.60
2018-05-12T02:42:19.801Z,14.60
2018-05-12T02:44:49.114Z,14.60
2018-05-12T02:47:18.219Z,14.60
2018-05-12T02:49:46.610Z,14.60
2018-05-12T02:52:14.973Z,14.60
2018-05-12T02:54:44.124Z,14.70
2018-05-12T02:57:13.292Z,14.60
2018-05-12T02:59:41.622Z,14.60
2018-05-12T03:02:10.002Z,14.60
2018-05-12T03:04:38.382Z,14.60
2018-05-12T03:07:06.882Z,14.60
2018-05-12T03:09:35.985Z,14.60
2018-05-12T03:12:05.122Z,14.60
2018-05-12T03:14:33.519Z,14.60
2018-05-12T03:17:02.037Z,14.60
2018-05-12T03:19:30.365Z,14.60
2018-05-12T03:21:58.730Z,14.60
2018-05-12T03:24:27.112Z,14.60
2018-05-12T03:26:55.451Z,14.60
2018-05-12T03:29:24.583Z,14.60
2018-05-12T03:31:53.020Z,14.50
2018-05-12T03:34:21.405Z,14.50
2018-05-12T03:36:50.504Z,14.50
2018-05-12T03:39:18.862Z,14.50
2018-05-12T03:41:47.216Z,14.50
2018-05-12T03:44:15.574Z,14.50
2018-05-12T03:46:44.170Z,14.50
2018-05-12T03:49:12.518Z,14.50
2018-05-12T03:51:40.872Z,14.50
2018-05-12T03:54:09.252Z,14.40
2018-05-12T03:56:37.627Z,14.40
2018-05-12T03:59:06.053Z,14.40
2018-05-12T04:01:34.410Z,14.50
2018-05-12T04:04:03.692Z,14.50
2018-05-12T04:06:44.073Z,14.40
2018-05-12T04:09:25.082Z,14.50
2018-05-12T04:12:05.541Z,14.50
2018-05-12T04:14:33.910Z,14.50
2018-05-12T04:17:02.298Z,14.60
2018-05-12T04:19:30.650Z,14.60
2018-05-12T04:21:59.060Z,14.60
2018-05-12T04:24:27.457Z,14.60
2018-05-12T04:26:55.818Z,14.60
2018-05-12T04:29:24.156Z,14.70
2018-05-12T04:31:53.294Z,14.70
2018-05-12T04:34:21.667Z,14.60
2018-05-12T04:36:50.051Z,14.70
2018-05-12T04:39:18.422Z,14.70
2018-05-12T04:41:46.781Z,14.70
2018-05-12T04:44:15.895Z,14.70
2018-05-12T04:46:44.253Z,14.70
2018-05-12T04:49:12.595Z,14.70
2018-05-12T04:51:41.043Z,14.70
2018-05-12T04:54:09.523Z,14.80
2018-05-12T04:56:38.112Z,14.80
2018-05-12T04:59:06.491Z,14.80
2018-05-12T05:01:34.871Z,14.80
2018-05-12T05:04:03.245Z,14.80
2018-05-12T05:06:31.601Z,14.90
2018-05-12T05:09:00.917Z,14.90
2018-05-12T05:11:29.258Z,14.90
2018-05-12T05:13:58.411Z,14.90
2018-05-12T05:16:26.803Z,14.90
2018-05-12T05:18:55.268Z,15.00
2018-05-12T05:21:23.608Z,15.00
2018-05-12T05:23:52.771Z,15.00
2018-05-12T05:26:21.133Z,15.00
2018-05-12T05:28:49.505Z,15.00
2018-05-12T05:31:17.869Z,15.00
2018-05-12T05:33:46.261Z,15.10
2018-05-12T05:36:15.044Z,15.10
2018-05-12T05:38:43.435Z,15.20
2018-05-12T05:41:11.804Z,15.30
2018-05-12T05:43:40.362Z,15.30
2018-05-12T05:46:08.715Z,15.30
2018-05-12T05:48:37.059Z,15.40
2018-05-12T05:51:05.431Z,15.40
2018-05-12T05:53:33.777Z,15.50
2018-05-12T05:56:02.540Z,15.60
2018-05-12T05:58:30.916Z,15.70
2018-05-12T06:00:59.348Z,15.80
2018-05-12T06:03:27.698Z,15.90
2018-05-12T06:05:56.821Z,16.20
2018-05-12T06:08:25.276Z,16.20
2018-05-12T06:10:54.378Z,16.60
2018-05-12T06:13:23.347Z,16.60
2018-05-12T06:15:51.686Z,16.90
2018-05-12T06:18:20.048Z,17.20
2018-05-12T06:20:48.437Z,17.40
2018-05-12T06:23:16.795Z,17.60
2018-05-12T06:25:45.391Z,17.80
2018-05-12T06:28:13.780Z,17.80
2018-05-12T06:30:42.165Z,17.90
2018-05-12T06:33:10.529Z,18.00
2018-05-12T06:35:39.022Z,18.10
2018-05-12T06:38:07.461Z,18.30
2018-05-12T06:40:36.609Z,18.50
2018-05-12T06:43:05.036Z,18.50
2018-05-12T06:45:34.173Z,18.70
2018-05-12T06:48:02.557Z,18.70
2018-05-12T06:50:31.026Z,18.70
2018-05-12T06:52:59.369Z,18.70
2018-05-12T06:55:28.510Z,18.70
2018-05-12T06:57:56.889Z,18.70
2018-05-12T07:00:25.275Z,18.70
2018-05-12T07:02:53.642Z,18.80
2018-05-12T07:05:22.043Z,18.80
2018-05-12T07:07:50.470Z,18.90
2018-05-12T07:10:18.995Z,18.90
2018-05-12T07:12:47.357Z,19.00
2018-05-12T07:15:15.765Z,19.00
2018-05-12T07:17:44.110Z,19.20
2018-05-12T07:20:12.624Z,19.30
2018-05-12T07:22:40.963Z,19.30
2018-05-12T07:25:09.347Z,19.30
2018-05-12T07:27:37.702Z,19.40
2018-05-12T07:30:06.079Z,19.40
2018-05-12T07:32:34.436Z,19.40
2018-05-12T07:35:02.802Z,19.30
2018-05-12T07:37:31.325Z,19.30
2018-05-12T07:39:59.814Z,19.30
2018-05-12T07:42:28.117Z,19.40
2018-05-12T07:44:56.488Z,19.40
2018-05-12T07:47:25.105Z,19.50
2018-05-12T07:49:53.526Z,19.60
2018-05-12T07:52:21.946Z,19.70
2018-05-12T07:54:50.322Z,19.80
2018-05-12T07:57:18.662Z,19.90
2018-05-12T07:59:47.795Z,20.20
2018-05-12T08:02:16.201Z,20.20
2018-05-12T08:04:44.575Z,20.30
2018-05-12T08:07:12.953Z,20.30
2018-05-12T08:09:41.296Z,20.30
2018-05-12T08:12:10.422Z,20.30
2018-05-12T08:14:38.990Z,20.20
2018-05-12T08:17:07.579Z,20.20
2018-05-12T08:19:36.538Z,20.10
2018-05-12T08:22:05.806Z,19.90
2018-05-12T08:24:34.141Z,19.90
2018-05-12T08:27:02.535Z,19.80
2018-05-12T08:29:31.022Z,19.70
2018-05-12T08:31:59.390Z,19.60
2018-05-12T08:34:27.743Z,19.60
2018-05-12T08:36:56.863Z,19.60
2018-05-12T08:39:25.294Z,19.60
2018-05-12T08:41:53.621Z,19.60
2018-05-12T08:44:21.972Z,19.60
2018-05-12T08:46:51.093Z,19.70
2018-05-12T08:49:19.492Z,19.70
2018-05-12T08:51:47.867Z,19.80
2018-05-12T08:54:16.372Z,19.90
2018-05-12T08:56:44.729Z,20.00
2018-05-12T08:59:13.111Z,20.20
2018-05-12T09:01:41.587Z,20.30
2018-05-12T09:04:09.966Z,20.50
2018-05-12T09:06:38.311Z,20.70
2018-05-12T09:09:06.658Z,21.10
2018-05-12T09:11:35.068Z,21.50
2018-05-12T09:14:03.416Z,21.80
2018-05-12T09:16:31.771Z,22.10
2018-05-12T09:19:00.152Z,22.50
2018-05-12T09:21:28.510Z,22.80
2018-05-12T09:23:56.866Z,22.90
2018-05-12T09:26:26.032Z,23.30
2018-05-12T09:28:55.202Z,23.60
2018-05-12T09:31:23.559Z,23.50
2018-05-12T09:33:52.210Z,23.80
2018-05-12T09:36:20.576Z,24.10
2018-05-12T09:38:49.136Z,24.40
2018-05-12T09:41:17.469Z,24.70
2018-05-12T09:43:46.589Z,25.00
2018-05-12T09:46:15.070Z,25.00
2018-05-12T09:48:43.365Z,25.10
2018-05-12T09:51:12.056Z,25.20
2018-05-12T09:53:40.431Z,25.20
2018-05-12T09:56:08.782Z,25.40
2018-05-12T09:58:37.276Z,25.70
2018-05-12T10:01:05.637Z,25.80
2018-05-12T10:03:34.774Z,25.60
2018-05-12T10:06:03.123Z,25.60
2018-05-12T10:08:31.604Z,25.60
2018-05-12T10:10:59.964Z,25.70
2018-05-12T10:13:29.091Z,26.10
2018-05-12T10:15:57.529Z,26.10
2018-05-12T10:18:26.024Z,26.40
2018-05-12T10:20:54.445Z,26.70
2018-05-12T10:23:22.815Z,26.80
2018-05-12T10:25:51.943Z,26.70
2018-05-12T10:28:20.290Z,26.70
2018-05-12T10:30:48.645Z,26.50
2018-05-12T10:33:17.762Z,27.10
2018-05-12T10:35:46.165Z,27.10
2018-05-12T10:38:14.541Z,27.40
2018-05-12T10:40:43.167Z,27.40
2018-05-12T10:43:11.477Z,27.20
2018-05-12T10:45:39.969Z,26.90
2018-05-12T10:48:08.313Z,26.50
2018-05-12T10:50:36.746Z,26.40
2018-05-12T10:53:05.217Z,26.30
2018-05-12T10:55:33.567Z,26.10
2018-05-12T10:58:02.683Z,25.80
2018-05-12T11:00:31.037Z,25.80
2018-05-12T11:03:00.177Z,25.50
2018-05-12T11:05:28.535Z,25.50
2018-05-12T11:07:56.923Z,25.50
2018-05-12T11:10:25.409Z,25.50
2018-05-12T11:12:53.884Z,25.40
2018-05-12T11:15:22.273Z,25.30
2018-05-12T11:17:50.766Z,25.30
2018-05-12T11:20:19.248Z,25.20
2018-05-12T11:22:47.834Z,25.10
2018-05-12T11:25:16.194Z,25.00
2018-05-12T11:27:45.019Z,24.90
2018-05-12T11:30:13.482Z,24.80
2018-05-12T11:32:41.833Z,24.70
2018-05-12T11:35:10.370Z,24.50
2018-05-12T11:37:38.722Z,24.50
2018-05-12T11:40:07.087Z,24.50
2018-05-12T11:42:36.145Z,24.70
2018-05-12T11:45:05.272Z,25.30
2018-05-12T11:47:34.547Z,25.90
2018-05-12T11:50:03.671Z,26.60
2018-05-12T11:52:32.068Z,26.50
2018-05-12T11:55:00.565Z,27.40
2018-05-12T11:57:28.907Z,27.80
2018-05-12T11:59:57.415Z,27.90
2018-05-12T12:02:25.784Z,28.10
2018-05-12T12:04:54.270Z,28.30
2018-05-12T12:07:22.643Z,28.80
2018-05-12T12:09:51.032Z,29.20
2018-05-12T12:12:19.402Z,29.70
2018-05-12T12:14:47.864Z,30.00
2018-05-12T12:17:16.240Z,30.40
2018-05-12T12:19:45.358Z,31.20
2018-05-12T12:22:13.944Z,31.20
2018-05-12T12:24:42.310Z,31.30
2018-05-12T12:27:10.665Z,31.50
2018-05-12T12:29:39.770Z,31.80
2018-05-12T12:32:08.226Z,31.80
2018-05-12T12:34:36.582Z,31.90
2018-05-12T12:37:04.984Z,32.00
2018-05-12T12:39:33.435Z,32.10
2018-05-12T12:42:01.811Z,32.10
2018-05-12T12:44:30.167Z,32.40
2018-05-12T12:46:58.530Z,32.50
2018-05-12T12:49:26.899Z,32.60
2018-05-12T12:51:56.011Z,32.20
2018-05-12T12:54:24.426Z,32.20
2018-05-12T12:56:52.770Z,32.30
2018-05-12T12:59:21.168Z,32.40
2018-05-12T13:01:49.570Z,32.50
2018-05-12T13:04:18.006Z,32.30
2018-05-12T13:06:46.371Z,31.70
2018-05-12T13:09:15.499Z,31.50
2018-05-12T13:11:43.893Z,31.50
2018-05-12T13:14:12.262Z,31.50
2018-05-12T13:16:40.719Z,31.50
2018-05-12T13:19:09.124Z,31.70
2018-05-12T13:21:37.703Z,31.90
2018-05-12T13:24:06.087Z,32.20
2018-05-12T13:26:34.439Z,32.40
2018-05-12T13:29:03.027Z,32.60
2018-05-12T13:31:31.648Z,32.80
2018-05-12T13:34:00.002Z,33.00
2018-05-12T13:36:28.385Z,33.00
2018-05-12T13:38:56.766Z,33.10
2018-05-12T13:41:25.119Z,32.70
2018-05-12T13:43:54.338Z,31.70
2018-05-12T13:46:22.706Z,31.60
2018-05-12T13:48:51.121Z,31.30
2018-05-12T13:51:19.505Z,31.30
2018-05-12T13:53:48.014Z,31.60
2018-05-12T13:56:16.354Z,31.50
2018-05-12T13:58:44.721Z,31.70
2018-05-12T14:01:13.218Z,31.50
2018-05-12T14:03:41.576Z,31.10
2018-05-12T14:06:09.972Z,30.90
2018-05-12T14:08:38.360Z,30.60
2018-05-12T14:11:06.779Z,30.50
2018-05-12T14:13:35.176Z,30.60
2018-05-12T14:16:04.297Z,31.00
2018-05-12T14:18:33.279Z,31.00
2018-05-12T14:21:01.628Z,31.20
2018-05-12T14:23:30.000Z,31.30
2018-05-12T14:25:58.360Z,31.30
2018-05-12T14:28:26.818Z,31.10
2018-05-12T14:30:55.174Z,30.70
2018-05-12T14:33:23.549Z,30.20
2018-05-12T14:35:53.000Z,28.90
2018-05-12T14:38:21.395Z,28.90
2018-05-12T14:40:49.732Z,28.30
2018-05-12T14:43:18.108Z,27.90
2018-05-12T14:45:46.501Z,27.70
2018-05-12T14:48:14.865Z,27.60
2018-05-12T14:50:44.112Z,27.40
2018-05-12T14:53:12.458Z,27.40
2018-05-12T14:55:40.829Z,27.60
2018-05-12T14:58:09.183Z,28.10
2018-05-12T15:00:37.536Z,28.90
2018-05-12T15:03:06.066Z,29.40
2018-05-12T15:05:34.446Z,29.80
2018-05-12T15:08:02.948Z,30.00
2018-05-12T15:10:31.320Z,29.90
2018-05-12T15:12:59.677Z,30.10
2018-05-12T15:15:28.107Z,30.20
2018-05-12T15:17:56.451Z,30.50
2018-05-12T15:20:24.817Z,30.80
2018-05-12T15:22:59.211Z,31.00
2018-05-12T15:25:27.566Z,31.10
2018-05-12T15:27:55.910Z,31.20
2018-05-12T15:30:24.290Z,31.20
2018-05-12T15:32:52.659Z,30.80
2018-05-12T15:35:21.043Z,30.30
2018-05-12T15:37:49.406Z,29.80
2018-05-12T15:40:17.810Z,29.40
2018-05-12T15:42:46.198Z,28.90
2018-05-12T15:45:15.455Z,28.20
2018-05-12T15:47:44.692Z,27.80
2018-05-12T15:50:13.058Z,27.80
2018-05-12T15:52:41.441Z,27.50
2018-05-12T15:55:09.828Z,27.50
2018-05-12T15:57:38.257Z,27.90
2018-05-12T16:00:07.385Z,28.50
2018-05-12T16:02:35.758Z,28.50
2018-05-12T16:05:04.269Z,28.80
2018-05-12T16:07:32.663Z,29.20
2018-05-12T16:10:01.031Z,29.50
2018-05-12T16:12:29.412Z,29.90
2018-05-12T16:14:57.754Z,30.50
2018-05-12T16:20:01.714Z,31.70
2018-05-12T16:22:30.191Z,31.70
2018-05-12T16:24:58.553Z,32.10
2018-05-12T16:27:26.899Z,32.30
2018-05-12T16:29:55.329Z,32.60
2018-05-12T16:32:23.674Z,32.90
2018-05-12T16:34:53.121Z,33.10
2018-05-12T16:37:21.612Z,33.10
2018-05-12T16:39:50.033Z,33.30
2018-05-12T16:42:19.250Z,33.30
2018-05-12T16:44:47.510Z,33.30
2018-05-12T16:47:16.651Z,32.50
2018-05-12T16:49:45.014Z,32.50
2018-05-12T16:52:13.430Z,31.90
2018-05-12T16:54:41.901Z,31.20
2018-05-12T16:57:10.264Z,30.30
2018-05-12T16:59:38.624Z,29.50
2018-05-12T17:02:07.739Z,28.50
2018-05-12T17:04:36.117Z,28.50
2018-05-12T17:07:04.465Z,28.00
2018-05-12T17:09:33.611Z,26.90
2018-05-12T17:12:01.975Z,26.80
2018-05-12T17:14:30.332Z,26.40
2018-05-12T17:16:58.680Z,26.00
2018-05-12T17:19:27.120Z,25.70
2018-05-12T17:21:55.456Z,25.40
2018-05-12T17:24:24.779Z,25.00
2018-05-12T17:26:53.118Z,24.90
2018-05-12T17:29:21.482Z,24.70
2018-05-12T17:31:49.835Z,24.50
2018-05-12T17:34:18.224Z,24.30
2018-05-12T17:36:47.091Z,24.20
2018-05-12T17:39:15.465Z,24.00
2018-05-12T17:41:43.873Z,23.90
2018-05-12T17:44:12.257Z,23.70
2018-05-12T17:46:40.640Z,23.60
2018-05-12T17:49:09.153Z,23.50
2018-05-12T17:51:37.519Z,23.50
2018-05-12T17:54:05.874Z,23.40
2018-05-12T17:56:34.238Z,23.30
2018-05-12T17:59:02.641Z,23.30
2018-05-12T18:01:31.083Z,23.20
2018-05-12T18:03:59.507Z,23.10
2018-05-12T18:06:28.572Z,23.00
2018-05-12T18:08:56.926Z,22.90
2018-05-12T18:11:25.302Z,22.90
2018-05-12T18:13:54.546Z,22.70
2018-05-12T18:16:23.027Z,22.60
2018-05-12T18:18:51.390Z,22.50
2018-05-12T18:21:19.771Z,22.30
2018-05-12T18:23:48.152Z,22.10
2018-05-12T18:26:16.542Z,22.00
2018-05-12T18:28:44.890Z,21.80
2018-05-12T18:31:13.407Z,21.60
2018-05-12T18:33:41.754Z,21.50
2018-05-12T18:36:10.120Z,21.40
2018-05-12T18:38:39.291Z,21.10
2018-05-12T18:41:07.607Z,21.10
2018-05-12T18:43:36.004Z,21.00
2018-05-12T18:46:04.356Z,20.90
2018-05-12T18:48:32.701Z,20.80
2018-05-12T18:51:01.167Z,20.70
2018-05-12T18:53:29.521Z,20.60
2018-05-12T18:55:57.977Z,20.50
2018-05-12T18:58:27.099Z,20.30
2018-05-12T19:00:55.465Z,20.30
2018-05-12T19:03:23.854Z,20.20
2018-05-12T19:05:52.345Z,20.10
2018-05-12T19:08:21.002Z,20.00
2018-05-12T19:10:49.306Z,20.00
2018-05-12T19:13:17.657Z,19.90
2018-05-12T19:15:46.023Z,19.80
2018-05-12T19:18:15.176Z,19.70
2018-05-12T19:20:43.527Z,19.70
2018-05-12T19:23:11.887Z,19.60
2018-05-12T19:25:41.062Z,19.50
2018-05-12T19:28:09.469Z,19.40
2018-05-12T19:30:38.629Z,19.30
2018-05-12T19:33:07.123Z,19.30
2018-05-12T19:35:35.545Z,19.30
2018-05-12T19:38:03.945Z,19.30
2018-05-12T19:40:32.327Z,19.20
2018-05-12T19:43:00.822Z,19.10
2018-05-12T19:45:29.180Z,19.10
2018-05-12T19:47:57.549Z,19.10
2018-05-12T19:50:25.950Z,19.00
2018-05-12T19:52:54.417Z,19.00
2018-05-12T19:55:22.788Z,18.90
2018-05-12T19:57:51.151Z,18.90
2018-05-12T20:00:19.497Z,18.80
2018-05-12T20:02:48.747Z,18.70
2018-05-12T20:05:17.117Z,18.70
2018-05-12T20:07:45.528Z,18.70
2018-05-12T20:10:13.883Z,18.60
2018-05-12T20:12:42.314Z,18.60
2018-05-12T20:15:10.752Z,18.60
2018-05-12T20:17:39.275Z,18.60
2018-05-12T20:20:07.732Z,18.50
2018-05-12T20:22:36.164Z,18.50
2018-05-12T20:25:04.586Z,18.50
2018-05-12T20:27:32.972Z,18.50
2018-05-12T20:30:01.540Z,18.50
2018-05-12T20:32:29.965Z,18.50
2018-05-12T20:34:58.335Z,18.40
2018-05-12T20:37:26.783Z,18.40
2018-05-12T20:39:55.045Z,18.30
2018-05-12T20:42:23.403Z,18.30
2018-05-12T20:44:51.914Z,18.30
2018-05-12T20:47:20.545Z,18.20
2018-05-12T20:49:48.887Z,18.20
2018-05-12T20:52:17.242Z,18.10
2018-05-12T20:54:45.604Z,18.10
2018-05-12T20:57:14.725Z,18.10
2018-05-12T20:59:43.101Z,18.00
2018-05-12T21:02:11.451Z,18.00
2018-05-12T21:04:40.570Z,18.00
2018-05-12T21:07:08.949Z,18.00
2018-05-12T21:09:37.299Z,17.90
2018-05-12T21:12:05.732Z,17.90
2018-05-12T21:14:34.235Z,17.90
2018-05-12T21:17:02.606Z,17.90
2018-05-12T21:19:30.966Z,17.90
2018-05-12T21:21:59.319Z,17.90
2018-05-12T21:24:27.731Z,17.90
2018-05-12T21:26:56.079Z,17.80
2018-05-12T21:29:25.321Z,17.70
2018-05-12T21:31:53.547Z,17.70
2018-05-12T21:34:22.672Z,17.70
2018-05-12T21:36:51.016Z,17.70
2018-05-12T21:39:20.871Z,17.60
2018-05-12T21:41:49.255Z,17.60
2018-05-12T21:44:17.660Z,17.60
2018-05-12T21:46:46.008Z,17.60
2018-05-12T21:49:14.410Z,17.60
2018-05-12T21:51:42.794Z,17.60
2018-05-12T21:54:11.194Z,17.60
2018-05-12T21:56:39.627Z,17.60
2018-05-12T21:59:08.621Z,17.70
2018-05-12T22:01:36.974Z,17.70
2018-05-12T22:04:05.330Z,17.70
2018-05-12T22:06:33.685Z,17.70
2018-05-12T22:09:02.022Z,17.80
2018-05-12T22:11:30.505Z,17.80
2018-05-12T22:13:58.898Z,17.80
2018-05-12T22:16:27.250Z,17.90
2018-05-12T22:18:55.612Z,17.90
2018-05-12T22:21:24.758Z,17.90
2018-05-12T22:23:53.097Z,17.90
2018-05-12T22:26:22.228Z,17.80
2018-05-12T22:28:50.579Z,17.80
2018-05-12T22:31:18.958Z,17.80
2018-05-12T22:33:49.963Z,17.80
2018-05-12T22:36:18.321Z,17.70
2018-05-12T22:38:46.676Z,17.70
2018-05-12T22:41:15.026Z,17.70
2018-05-12T22:43:44.138Z,17.70
2018-05-12T22:46:12.501Z,17.70
2018-05-12T22:48:41.612Z,17.70
2018-05-12T22:51:10.075Z,17.70
2018-05-12T22:53:39.186Z,17.70
2018-05-12T22:56:08.314Z,17.70
2018-05-12T22:58:36.691Z,17.70
2018-05-12T23:01:05.040Z,17.70
2018-05-12T23:03:34.220Z,17.70
2018-05-12T23:06:02.587Z,17.70
2018-05-12T23:08:30.962Z,17.70
2018-05-12T23:10:59.324Z,17.70
2018-05-12T23:13:27.657Z,17.60
2018-05-12T23:15:56.061Z,17.60
2018-05-12T23:18:24.486Z,17.50
2018-05-12T23:20:52.960Z,17.60
2018-05-12T23:23:21.311Z,17.50
2018-05-12T23:25:49.839Z,17.50
2018-05-12T23:28:18.202Z,17.50
2018-05-12T23:30:46.649Z,17.50
2018-05-12T23:33:14.998Z,17.50
2018-05-12T23:35:43.470Z,17.50
2018-05-12T23:38:12.611Z,17.50
2018-05-12T23:40:41.139Z,17.50
2018-05-12T23:43:09.490Z,17.50
2018-05-12T23:45:37.946Z,17.50
2018-05-12T23:48:06.307Z,17.50
2018-05-12T23:50:35.239Z,17.60
2018-05-12T23:53:03.694Z,17.50
2018-05-12T23:55:32.110Z,17.50
2018-05-12T23:58:00.557Z,17.50
